• Join FlightAware (Why Join?)
  • Login
  • US Flag 
04:59AM EST


 

Airport Tracker/Info


-or-


 

Live Flight TrackerFlight Track Log ✈ TAM3242 ✈ 14-May-2014 ✈ SBSP / CGH - SBUL / UDI

Flight Track Log - Related Links

Times and Time Zones

All times are in EDT time to prevent confusion due to time zone crossing. See the TAM3242 flight status page for this flight to view local times or setup timezone preferences in your user account.

Time Position Orientation Groundspeed Altitude Reporting Facility
EDT Latitude Longitude Course Direction KTS MPH feet Rate Location/Type
05:56AM -23.7017 -46.9067 246° West 276 318 6,800  Level FlightAware ADS-B (SDAM)
05:56AM -23.7035 -46.9123 253° West 277 319 6,800  Level FlightAware ADS-B (SDAM)
05:56AM -23.7047 -46.9197 262° West 279 321 6,800  Level FlightAware ADS-B (SDAM)
05:56AM -23.7047 -46.9269 273° West 280 322 6,800  Level FlightAware ADS-B (SDAM)
05:56AM -23.7036 -46.9342 282° West 281 323 6,800  Level FlightAware ADS-B (SDAM)
05:56AM -23.7015 -46.9408 292° West 281 323 6,800  Level FlightAware ADS-B (SDAM)
05:57AM -23.6932 -46.9598 297° West 280 322 6,800  Level FlightAware ADS-B (SDAM)
05:57AM -23.6833 -46.9782 307° West 282 325 6,800  Level FlightAware ADS-B (SDAM)
05:57AM -23.6796 -46.9827 315° West 282 325 6,800  Level FlightAware ADS-B (SDAM)
05:57AM -23.6746 -46.9872 324° Northwest 283 326 6,800 600 Level FlightAware ADS-B (SDAM)
05:57AM -23.6681 -46.9914 333° Northwest 284 327 6,900 1,200 Climbing FlightAware ADS-B (SDAM)
05:57AM -23.6616 -46.9943 339° North 284 327 7,000 2,400 Climbing FlightAware ADS-B (SDAM)
05:57AM -23.6430 -47.0022 339° North 290 334 7,700 2,880 Climbing FlightAware ADS-B (SDAM)
05:58AM -23.6249 -47.0103 337° Northwest 294 338 8,400 3,000 Climbing FlightAware ADS-B (SDAM)
05:58AM -23.6055 -47.0195 337° Northwest 298 343 9,200 3,180 Climbing FlightAware ADS-B (SDAM)
05:58AM -23.5863 -47.0287 337° Northwest 301 346 10,000 2,340 Climbing FlightAware ADS-B (SDAM)
05:59AM -23.5465 -47.0476 337° Northwest 328 377 11,000 1,800 Climbing FlightAware ADS-B (SDAM)
05:59AM -23.5024 -47.0681 337° Northwest 356 410 11,800 2,400 Climbing FlightAware ADS-B (SDAM)
06:00AM -23.4562 -47.0896 337° Northwest 354 407 13,400 2,760 Climbing FlightAware ADS-B (SDAM)
06:00AM -23.4111 -47.1105 337° Northwest 362 417 14,600 2,400 Climbing FlightAware ADS-B (SDAM)
06:01AM -23.3636 -47.1325 337° Northwest 370 426 15,800 2,220 Climbing FlightAware ADS-B (SDAM)
06:01AM -23.3161 -47.1545 337° Northwest 378 435 16,900 2,160 Climbing FlightAware ADS-B (SDAM)
06:02AM -23.2675 -47.1770 337° Northwest 381 438 18,000 2,400 Climbing FlightAware ADS-B (SDAM)
06:02AM -23.2191 -47.1994 337° Northwest 379 436 19,300 2,160 Climbing FlightAware ADS-B (SDAM)
06:03AM -23.1698 -47.2222 337° Northwest 387 445 20,200 1,620 Climbing FlightAware ADS-B (SDAM)
06:03AM -23.1191 -47.2458 337° Northwest 397 457 21,000 1,560 Climbing FlightAware ADS-B (SDAM)
06:04AM -23.0682 -47.2693 337° Northwest 404 465 21,800 1,980 Climbing FlightAware ADS-B (SDAM)
06:04AM -23.0171 -47.2927 338° Northwest 397 457 23,000 1,920 Climbing FlightAware ADS-B (SDAM)
06:05AM -22.9658 -47.3163 337° Northwest 407 468 23,700 1,680 Climbing FlightAware ADS-B (SDAM)
06:05AM -22.9131 -47.3406 337° Northwest 404 465 24,700 1,860 Climbing FlightAware ADS-B (SDAM)
06:06AM -22.8611 -47.3646 337° Northwest 405 466 25,600 1,440 Climbing FlightAware ADS-B (SDAM)
06:06AM -22.8089 -47.3886 337° Northwest 413 475 26,200 1,680 Climbing FlightAware ADS-B (SDAM)
06:07AM -22.7567 -47.4126 338° Northwest 405 466 27,300 2,940 Climbing FlightAware ADS-B (SDAM)
06:07AM -22.7072 -47.4351 338° Northwest 377 434 29,100 3,000 Climbing FlightAware ADS-B (SDAM)
06:08AM -22.6591 -47.4572 337° Northwest 368 423 30,300 1,860 Climbing FlightAware ADS-B (SDAM)
06:08AM -22.6117 -47.4791 337° Northwest 370 426 31,000 1,260 Climbing FlightAware ADS-B (SDAM)
06:09AM -22.5643 -47.5010 337° Northwest 372 428 31,600 1,320 Climbing FlightAware ADS-B (SDAM)
06:09AM -22.5163 -47.5230 337° Northwest 375 432 32,300 960 Climbing FlightAware ADS-B (SDAM)
06:10AM -22.4673 -47.5454 337° Northwest 387 445 32,600 360 Climbing FlightAware ADS-B (SDAM)
06:10AM -22.4168 -47.5649 348° North 413 475 32,700 360 Climbing FlightAware ADS-B (SDAM)
06:11AM -22.3571 -47.5748 352° North 430 495 33,000 540 Climbing FlightAware ADS-B (SDAM)
06:11AM -22.2964 -47.5848 352° North 437 503 33,300 1,080 Climbing FlightAware ADS-B (SDAM)
06:12AM -22.2374 -47.5945 352° North 432 497 34,100 1,500 Climbing FlightAware ADS-B (SDAM)
06:12AM -22.1773 -47.6044 352° North 431 496 34,800 1,500 Climbing FlightAware ADS-B (SDAM)
06:13AM -22.1188 -47.6142 352° North 424 488 35,600 1,200 Climbing FlightAware ADS-B (SDAM)
06:13AM -22.0610 -47.6239 352° North 419 482 36,000 360 Climbing FlightAware ADS-B (SDAM)
06:14AM -22.0037 -47.6335 351° North 418 481 36,000  Level FlightAware ADS-B (SDAM)
06:14AM -21.9449 -47.6440 351° North 423 487 36,000  Level FlightAware ADS-B (SDAM)
06:15AM -21.8866 -47.6543 351° North 425 489 36,000  Level FlightAware ADS-B (SDAM)
06:15AM -21.8286 -47.6638 352° North 426 490 36,000  Level FlightAware ADS-B (SDAM)
06:16AM -21.7693 -47.6734 352° North 427 491 36,000  Level FlightAware ADS-B (SDAM)
06:16AM -21.7130 -47.6826 352° North 427 491 36,000  Level FlightAware ADS-B (SDAM)
06:17AM -21.6520 -47.6925 352° North 427 491 36,000  Level FlightAware ADS-B (SDAM)
06:17AM -21.5924 -47.7021 352° North 426 490 36,000  Level FlightAware ADS-B (SDAM)
06:18AM -21.5339 -47.7118 352° North 426 490 36,000  Level FlightAware ADS-B (SDAM)
06:18AM -21.4753 -47.7215 352° North 427 491 36,000  Level FlightAware ADS-B (SDAM)
06:19AM -21.4185 -47.7308 352° North 426 490 36,000  Level FlightAware ADS-B (SDAM)
06:19AM -21.3576 -47.7408 352° North 426 490 36,000  Level FlightAware ADS-B (SDAM)
06:20AM -21.2997 -47.7502 352° North 427 491 36,000  Level FlightAware ADS-B (SDAM)
06:21AM -21.2055 -47.7655 352° North 427 491 36,000  Level FlightAware ADS-B
06:21AM -21.1229 -47.7790 352° North 429 494 36,000  Level FlightAware ADS-B (SDAM)
06:22AM -21.0639 -47.7873 353° North 432 497 36,000  Level FlightAware ADS-B (SDAM)
06:22AM -21.0037 -47.7950 354° North 433 498 36,000  Level FlightAware ADS-B (SDAM)
06:23AM -20.9437 -47.8029 353° North 432 497 36,000  Level FlightAware ADS-B (SDAM)
06:23AM -20.8854 -47.8108 353° North 431 496 36,000  Level FlightAware ADS-B (SDAM)
06:24AM -20.8246 -47.8191 353° North 430 495 36,000  Level FlightAware ADS-B (SDAM)
06:24AM -20.7658 -47.8271 353° North 429 494 36,000 -420 Level FlightAware ADS-B (SDAM)
06:25AM -20.7059 -47.8357 352° North 425 489 35,600 -960 Descending FlightAware ADS-B (SDAM)
06:25AM -20.6697 -47.8476 338° Northwest 412 474 35,200 -1,560 Descending FlightAware ADS-B (SDAM)
06:25AM -20.6403 -47.8652 326° Northwest 404 465 34,600 -1,980 Descending FlightAware ADS-B (SDAM)
06:26AM -20.5912 -47.9017 326° Northwest 406 467 33,600 -2,040 Descending FlightAware ADS-B (SDAM)
06:26AM -20.5447 -47.9366 325° Northwest 410 472 32,600 -1,920 Descending FlightAware ADS-B (SDAM)
06:27AM -20.4980 -47.9716 326° Northwest 410 472 31,700 -1,680 Descending FlightAware ADS-B (SDAM)
06:27AM -20.4508 -48.0059 326° Northwest 408 470 30,900 -1,440 Descending FlightAware ADS-B (SDAM)
06:28AM -20.4043 -48.0390 327° Northwest 404 465 30,300 -1,140 Descending FlightAware ADS-B (SDAM)
06:28AM -20.3598 -48.0700 327° Northwest 398 458 29,800 -1,140 Descending FlightAware ADS-B (SDAM)
06:29AM -20.3115 -48.1031 328° Northwest 392 451 29,200 -1,140 Descending FlightAware ADS-B (SDAM)
06:29AM -20.2655 -48.1343 328° Northwest 387 445 28,700 -1,020 Descending FlightAware ADS-B (SDAM)
06:30AM -20.2222 -48.1646 326° Northwest 387 445 28,200 -1,140 Descending FlightAware ADS-B (SDAM)
06:30AM -20.1760 -48.1982 326° Northwest 385 443 27,600 -1,200 Descending FlightAware ADS-B (SDAM)
06:31AM -20.1340 -48.2294 325° Northwest 380 437 27,000 -1,860 Descending FlightAware ADS-B (SDAM)
06:31AM -20.0974 -48.2576 324° Northwest 376 433 25,900 -2,640 Descending FlightAware ADS-B (SDAM)
06:34AM -19.8763 -48.2517 North  Level Estimated
06:35AM -19.7765 -48.2491 North  Level Estimated
06:36AM -19.6768 -48.2464 North  Level Estimated
06:37AM -19.5770 -48.2438 North  Level Estimated
06:38AM -19.4773 -48.2412 North  Level Estimated
06:39AM -19.3775 -48.2386 North  Level Estimated
06:40AM -19.2778 -48.2360 North  Level Estimated
06:41AM -19.1780 -48.2333 North  Level Estimated
06:42AM -19.0783 -48.2307 North  Level Estimated
06:43AM -18.9785 -48.2281 North  Level Estimated
06:44AM -18.8828 -48.2256 North  Level Estimated
06:45AM -18.8828 -48.2256 North  Level Estimated
06:46AM -18.8828 -48.2256 North  Level Estimated
06:47AM -18.8828 -48.2256 North  Level Estimated
06:48AM -18.8828 -48.2256 North  Level Estimated
06:49AM -18.8828 -48.2256 North  Level Estimated
06:50AM -18.8828 -48.2256 North  Level Estimated
06:51AM -18.8828 -48.2256 North  Level Estimated
06:52AM -18.8828 -48.2256 North  Level Estimated
06:53AM -18.8828 -48.2256 North  Level Estimated
06:54AM -18.8828 -48.2256 North  Level Estimated
06:55AM -18.8828 -48.2256 North  Level Estimated
06:56AM -18.8828 -48.2256 North  Level Estimated
06:57AM -18.8828 -48.2256 North  Level Estimated
06:58AM -18.8828 -48.2256 North  Level Estimated
06:59AM -18.8828 -48.2256 North  Level Estimated
07:00AM -18.8828 -48.2256 North  Level Estimated
07:01AM -18.8828 -48.2256 North  Level Estimated